Time;durP1;ratioP1;P1;durP2;ratioP2;P2;SDS_P1;SDS_P2;PMS_P1;PMS_P2;Temp;Humidity;BMP_temperature;BMP_pressure;BME280_temperature;BME280_humidity;BME280_pressure;Samples;Min_cycle;Max_cycle;Signal;HPM_P1;HPM_P2
2023/10/10 00:04:25;;;;;;;;;;;;;;;2.11;61.76;99903.25;109787;1273;22412;-61
2023/10/10 00:06:53;;;;;;;;;;;;;;;2.07;61.88;99898.31;109692;1280;87246;-61
2023/10/10 00:09:23;;;;;;;;;;;;;;;2.01;62.15;99898.71;109815;1287;22509;-61
2023/10/10 00:11:53;;;;;;;;;;;;;;;2.00;62.10;99899.58;109686;1280;86448;-61
2023/10/10 00:14:22;;;;;;;;;;;;;;;2.02;62.03;99895.77;109917;1280;22547;-61
2023/10/10 00:17:07;;;;;;;;;;;;;;;2.04;62.34;99894.73;109921;1277;87104;-61
2023/10/10 00:19:44;;;;;;;;;;;;;;;2.04;62.73;99898.52;109968;1275;22619;-61
2023/10/10 00:22:12;;;;;;;;;;;;;;;2.03;63.16;99899.21;109951;1276;22437;-61
2023/10/10 00:24:41;;;;;;;;;;;;;;;2.05;63.52;99899.55;109901;1277;85848;-60
2023/10/10 00:27:13;;;;;;;;;;;;;;;2.08;63.67;99900.54;109982;1278;22417;-61
2023/10/10 00:29:44;;;;;;;;;;;;;;;2.09;63.90;99896.92;109882;1277;84731;-61
2023/10/10 00:32:17;;;;;;;;;;;;;;;2.09;63.85;99897.27;110000;1277;22488;-61
2023/10/10 00:34:48;;;;;;;;;;;;;;;2.10;63.94;99897.92;109922;1276;88105;-61
2023/10/10 00:37:21;;;;;;;;;;;;;;;2.08;63.73;99901.91;109978;1278;22444;-61
2023/10/10 00:39:53;;;;;;;;;;;;;;;2.05;63.34;99902.63;110017;1280;22420;-61
2023/10/10 00:42:36;;;;;;;;;;;;;;;2.01;63.20;99901.80;109926;1277;84716;-61
2023/10/10 00:45:16;;;;;;;;;;;;;;;1.94;63.05;99904.45;109982;1281;22557;-61
2023/10/10 00:47:50;;;;;;;;;;;;;;;1.90;63.22;99899.49;109906;1277;85913;-61
2023/10/10 00:50:23;;;;;;;;;;;;;;;1.88;63.29;99897.12;109960;1276;23179;-61
2023/10/10 00:52:53;;;;;;;;;;;;;;;1.89;63.42;99897.63;109846;1277;86911;-61
2023/10/10 00:55:24;;;;;;;;;;;;;;;1.88;63.60;99899.18;109926;1277;22434;-61
2023/10/10 00:57:58;;;;;;;;;;;;;;;1.86;63.68;99898.69;110002;1277;22405;-61
2023/10/10 01:00:30;;;;;;;;;;;;;;;1.82;63.58;99892.20;109914;1275;85879;-61
2023/10/10 01:03:20;;;;;;;;;;;;;;;1.77;63.73;99891.20;109950;1276;22464;-61
2023/10/10 01:05:54;;;;;;;;;;;;;;;1.72;64.48;99890.75;109936;1277;86344;-61
2023/10/10 01:08:31;;;;;;;;;;;;;;;1.68;64.56;99893.17;109970;1276;23178;-61
2023/10/10 01:11:02;;;;;;;;;;;;;;;1.64;64.63;99889.77;109867;1277;84718;-61
2023/10/10 01:13:30;;;;;;;;;;;;;;;1.63;64.75;99895.98;109927;1276;22412;-61
2023/10/10 01:16:00;;;;;;;;;;;;;;;1.63;64.99;99898.20;109946;1276;24307;-61
2023/10/10 01:18:59;;;;;;;;;;;;;;;1.66;65.26;99897.31;109903;1276;85954;-61
2023/10/10 01:21:32;;;;;;;;;;;;;;;1.69;65.54;99896.42;109967;1277;22486;-61
2023/10/10 01:24:11;;;;;;;;;;;;;;;1.78;65.97;99897.89;109945;1277;85470;-61
2023/10/10 01:26:44;;;;;;;;;;;;;;;1.86;65.79;99899.02;109992;1277;22486;-61
2023/10/10 01:29:25;;;;;;;;;;;;;;;1.94;65.06;99899.80;109942;1277;85866;-60
2023/10/10 01:31:55;;;;;;;;;;;;;;;1.94;64.90;99901.36;110010;1272;22417;-61
2023/10/10 01:34:31;;;;;;;;;;;;;;;1.90;65.22;99903.27;109997;1277;23293;-61
2023/10/10 01:37:54;;;;;;;;;;;;;;;1.89;65.32;99903.45;109926;1284;84970;-61
2023/10/10 01:40:17;;;;;;;;;;;;;;;1.89;65.52;99903.80;109906;1277;23215;-61
2023/10/10 01:42:58;;;;;;;;;;;;;;;1.92;65.83;99898.11;109913;1278;86020;-61
2023/10/10 01:45:29;;;;;;;;;;;;;;;1.96;66.15;99897.55;109978;1276;22432;-61
2023/10/10 01:47:57;;;;;;;;;;;;;;;1.99;66.58;99897.70;109938;1276;85409;-61
2023/10/10 01:50:32;;;;;;;;;;;;;;;2.03;66.92;99901.45;109998;1276;22430;-61
2023/10/10 01:53:00;;;;;;;;;;;;;;;2.11;67.15;99906.52;109915;1284;85837;-61
2023/10/10 01:55:29;;;;;;;;;;;;;;;2.18;67.36;99902.48;109988;1277;23266;-61
2023/10/10 01:58:02;;;;;;;;;;;;;;;2.27;67.70;99900.68;109975;1276;22421;-61
2023/10/10 02:00:34;;;;;;;;;;;;;;;2.31;67.78;99902.89;109927;1276;85541;-61
2023/10/10 02:03:03;;;;;;;;;;;;;;;2.30;67.81;99902.53;110010;1277;22872;-61
2023/10/10 02:08:11;;;;;;;;;;;;;;;2.32;67.72;99897.70;109987;1277;22436;-61
2023/10/10 02:10:45;;;;;;;;;;;;;;;2.32;67.34;99900.30;109923;1277;85529;-60
2023/10/10 02:13:14;;;;;;;;;;;;;;;2.32;67.56;99902.00;110002;1280;23163;-61
2023/10/10 02:15:42;;;;;;;;;;;;;;;2.36;67.57;99899.04;109962;1276;22416;-61
2023/10/10 02:18:17;;;;;;;;;;;;;;;2.42;67.58;99899.15;109912;1273;85251;-61
2023/10/10 02:28:49;;;;;;;;;;;;;;;2.47;67.44;99893.77;109902;1278;86892;-61
2023/10/10 02:31:23;;;;;;;;;;;;;;;2.45;67.55;99892.41;110000;1278;22403;-61
2023/10/10 02:33:58;;;;;;;;;;;;;;;2.41;67.71;99892.97;109979;1276;22525;-61
2023/10/10 02:36:59;;;;;;;;;;;;;;;2.37;68.02;99894.91;109840;1278;84394;-62
2023/10/10 02:39:29;;;;;;;;;;;;;;;2.33;68.41;99895.46;109977;1274;22414;-61
2023/10/10 02:42:03;;;;;;;;;;;;;;;2.31;68.56;99900.82;109923;1276;85433;-61
2023/10/10 02:47:04;;;;;;;;;;;;;;;2.32;69.24;99900.98;109889;1277;87169;-61
2023/10/10 02:49:37;;;;;;;;;;;;;;;2.35;69.48;99898.55;109938;1273;22427;-61
2023/10/10 02:52:06;;;;;;;;;;;;;;;2.37;69.64;99897.14;109938;1276;22433;-61
2023/10/10 02:54:53;;;;;;;;;;;;;;;2.40;69.81;99899.34;109911;1276;84171;-61
2023/10/10 02:57:41;;;;;;;;;;;;;;;2.46;70.05;99902.03;109967;1276;22452;-61
2023/10/10 03:00:26;;;;;;;;;;;;;;;2.50;70.20;99899.92;109909;1284;85323;-61
2023/10/10 03:03:18;;;;;;;;;;;;;;;2.57;70.22;99900.17;109966;1278;22427;-61
2023/10/10 03:05:50;;;;;;;;;;;;;;;2.66;70.17;99895.42;109831;1276;86170;-61
2023/10/10 03:08:51;;;;;;;;;;;;;;;2.73;70.50;99897.23;109942;1277;22639;-61
2023/10/10 03:11:36;;;;;;;;;;;;;;;2.79;70.65;99895.78;109910;1277;87572;-61
2023/10/10 03:14:07;;;;;;;;;;;;;;;2.85;70.73;99896.91;110005;1276;22451;-61
2023/10/10 03:16:44;;;;;;;;;;;;;;;2.87;70.75;99896.89;109995;1276;22429;-61
2023/10/10 03:19:26;;;;;;;;;;;;;;;2.88;70.70;99903.73;109979;1277;22495;-61
2023/10/10 03:22:28;;;;;;;;;;;;;;;2.87;70.82;99904.79;109984;1277;22684;-61
2023/10/10 03:28:18;;;;;;;;;;;;;;;2.88;70.72;99905.27;109945;1280;23171;-61
2023/10/10 03:31:08;;;;;;;;;;;;;;;2.89;70.64;99901.83;109896;1277;84327;-61
2023/10/10 03:33:43;;;;;;;;;;;;;;;2.89;70.39;99903.20;109986;1276;22406;-61
2023/10/10 05:25:37;;;;;;;;;;;;;;;5.01;75.40;99923.19;110062;1275;22486;-65
2023/10/10 05:28:05;;;;;;;;;;;;;;;5.09;75.23;99925.06;109784;1270;23377;-59
2023/10/10 05:30:44;;;;;;;;;;;;;;;5.18;75.46;99922.81;108878;1271;84878;-61
2023/10/10 05:33:12;;;;;;;;;;;;;;;5.26;75.64;99916.27;106941;1275;25462;-64
2023/10/10 05:35:40;;;;;;;;;;;;;;;5.31;75.50;99914.77;107366;1270;83825;-65
2023/10/10 05:38:08;;;;;;;;;;;;;;;5.33;75.51;99910.73;108524;1267;22545;-65
2023/10/10 05:40:38;;;;;;;;;;;;;;;5.35;75.49;99906.73;106836;1267;22643;-65
2023/10/10 05:43:49;;;;;;;;;;;;;;;5.33;75.48;99903.15;108899;1268;84577;-60
2023/10/10 05:45:57;;;;;;;;;;;;;;;5.32;75.83;99907.83;106916;1266;23734;-63
2023/10/10 05:48:43;;;;;;;;;;;;;;;5.38;75.95;99912.53;106982;1269;83776;-65
2023/10/10 05:51:13;;;;;;;;;;;;;;;5.47;76.12;99917.85;108788;1271;24225;-62
2023/10/10 05:53:40;;;;;;;;;;;;;;;5.59;76.55;99922.05;109266;1269;86201;-65
2023/10/10 05:56:14;;;;;;;;;;;;;;;5.76;76.67;99922.52;110584;1267;22606;-66
2023/10/10 05:58:45;;;;;;;;;;;;;;;5.97;77.00;99918.20;108024;1268;24375;-65
2023/10/10 06:01:13;;;;;;;;;;;;;;;6.21;77.00;99917.25;106809;1269;22828;-65
2023/10/10 06:03:41;;;;;;;;;;;;;;;6.46;76.98;99917.61;110435;1275;22534;-66
2023/10/10 06:06:12;;;;;;;;;;;;;;;6.75;77.05;99916.49;110456;1267;84958;-64
2023/10/10 06:08:43;;;;;;;;;;;;;;;6.92;76.53;99917.52;109051;1269;22587;-62
2023/10/10 06:11:35;;;;;;;;;;;;;;;7.04;76.74;99919.10;107132;1267;84907;-63
2023/10/10 06:14:04;;;;;;;;;;;;;;;7.19;76.72;99919.48;110299;1271;22693;-60
2023/10/10 06:16:32;;;;;;;;;;;;;;;7.37;76.69;99921.39;109208;1272;22521;-66
2023/10/10 06:19:06;;;;;;;;;;;;;;;7.54;76.63;99925.70;107552;1267;83555;-60
2023/10/10 06:22:02;;;;;;;;;;;;;;;7.65;76.55;99929.86;106885;1270;22559;-63
2023/10/10 06:24:57;;;;;;;;;;;;;;;7.74;76.52;99924.35;106772;1267;83672;-62
2023/10/10 06:27:36;;;;;;;;;;;;;;;7.79;76.62;99924.02;109758;1268;25229;-62
2023/10/10 06:30:04;;;;;;;;;;;;;;;7.81;76.32;99924.47;108672;1270;85249;-63
2023/10/10 06:33:06;;;;;;;;;;;;;;;7.81;76.58;99920.48;107434;1272;25323;-62
2023/10/10 06:35:37;;;;;;;;;;;;;;;7.89;76.75;99925.63;110410;1269;85105;-62
2023/10/10 06:38:12;;;;;;;;;;;;;;;7.91;76.54;99928.34;107437;1270;22522;-63
2023/10/10 06:40:52;;;;;;;;;;;;;;;7.91;76.56;99927.13;109897;1270;22516;-63
2023/10/10 06:43:41;;;;;;;;;;;;;;;7.99;76.83;99929.64;110551;1267;23227;-62
2023/10/10 06:46:16;;;;;;;;;;;;;;;8.09;76.77;99932.23;107985;1269;24126;-61
2023/10/10 06:49:23;;;;;;;;;;;;;;;8.18;76.72;99931.94;110439;1269;84635;-63
2023/10/10 06:51:55;;;;;;;;;;;;;;;8.23;76.65;99933.67;110544;1270;22453;-60
2023/10/10 06:54:53;;;;;;;;;;;;;;;8.23;76.46;99936.95;110468;1266;85113;-62
2023/10/10 06:57:58;;;;;;;;;;;;;;;8.25;76.56;99935.48;110529;1273;23142;-59
2023/10/10 07:01:04;;;;;;;;;;;;;;;8.31;76.60;99938.26;110449;1269;83543;-59
2023/10/10 07:03:30;;;;;;;;;;;;;;;8.40;76.45;99942.99;110496;1263;22459;-59
2023/10/10 07:05:58;;;;;;;;;;;;;;;8.40;76.26;99944.20;110464;1268;84734;-62
2023/10/10 07:08:25;;;;;;;;;;;;;;;8.35;76.11;99944.00;109387;1270;23863;-60
2023/10/10 07:10:53;;;;;;;;;;;;;;;8.35;76.32;99942.83;106708;1268;84708;-61
2023/10/10 07:13:21;;;;;;;;;;;;;;;8.36;76.32;99947.30;107914;1269;25281;-62
2023/10/10 07:15:52;;;;;;;;;;;;;;;8.38;76.34;99944.80;107900;1269;25321;-60
2023/10/10 07:18:22;;;;;;;;;;;;;;;8.40;76.34;99947.16;107114;1267;84199;-60
2023/10/10 07:23:37;;;;;;;;;;;;;;;8.48;76.65;99949.14;106932;1267;84191;-62
2023/10/10 07:26:05;;;;;;;;;;;;;;;8.56;76.79;99950.40;107109;1270;24332;-62
2023/10/10 07:28:47;;;;;;;;;;;;;;;8.68;76.79;99950.52;107928;1270;26157;-61
2023/10/10 07:31:17;;;;;;;;;;;;;;;8.76;76.58;99951.42;110462;1269;84574;-61
2023/10/10 07:33:45;;;;;;;;;;;;;;;8.83;76.55;99950.84;108649;1270;24211;-61
2023/10/10 07:36:13;;;;;;;;;;;;;;;8.87;76.54;99952.44;107039;1268;84893;-62
2023/10/10 07:38:40;;;;;;;;;;;;;;;8.94;76.39;99950.23;110486;1268;22496;-62
2023/10/10 07:41:08;;;;;;;;;;;;;;;9.00;76.44;99954.02;108184;1270;85503;-63
2023/10/10 07:43:35;;;;;;;;;;;;;;;9.06;76.35;99954.69;108325;1270;25379;-62
2023/10/10 07:46:17;;;;;;;;;;;;;;;9.11;76.30;99954.31;110432;1270;22497;-62
2023/10/10 07:48:46;;;;;;;;;;;;;;;9.16;76.31;99952.90;110500;1267;85245;-58
2023/10/10 07:51:22;;;;;;;;;;;;;;;9.21;76.17;99954.64;110463;1268;22410;-59
2023/10/10 07:54:01;;;;;;;;;;;;;;;9.29;76.30;99955.36;110459;1268;83659;-59
2023/10/10 07:56:31;;;;;;;;;;;;;;;9.39;76.22;99953.43;110522;1268;22522;-60
2023/10/10 07:58:58;;;;;;;;;;;;;;;9.41;76.00;99948.33;107819;1269;83994;-59
2023/10/10 08:01:27;;;;;;;;;;;;;;;9.44;75.97;99951.67;106848;1271;25339;-59
2023/10/10 08:03:54;;;;;;;;;;;;;;;9.53;76.17;99951.46;106829;1269;25131;-59
2023/10/10 08:06:21;;;;;;;;;;;;;;;9.63;76.04;99952.30;106714;1268;83625;-59
2023/10/10 08:09:11;;;;;;;;;;;;;;;9.69;75.99;99953.63;107656;1270;22518;-59
2023/10/10 08:11:38;;;;;;;;;;;;;;;9.78;75.89;99955.19;108442;1270;84850;-59
2023/10/10 08:14:09;;;;;;;;;;;;;;;9.84;75.85;99960.86;109828;1267;22513;-60
2023/10/10 08:16:43;;;;;;;;;;;;;;;9.92;75.91;99960.02;107597;1261;22514;-61
2023/10/10 08:19:11;;;;;;;;;;;;;;;10.01;75.77;99958.08;108999;1267;84456;-61
2023/10/10 08:22:18;;;;;;;;;;;;;;;10.05;75.71;99956.17;107883;1268;25546;-61
2023/10/10 08:24:45;;;;;;;;;;;;;;;10.04;75.42;99955.87;106805;1270;85226;-61
2023/10/10 08:27:13;;;;;;;;;;;;;;;10.08;75.43;99957.25;106834;1270;22781;-62
2023/10/10 08:29:41;;;;;;;;;;;;;;;10.17;75.52;99953.61;110170;1267;85529;-63
2023/10/10 08:32:08;;;;;;;;;;;;;;;10.22;75.29;99950.62;110371;1269;22540;-62
2023/10/10 08:34:41;;;;;;;;;;;;;;;10.22;75.16;99948.52;110368;1269;22463;-61
2023/10/10 08:37:11;;;;;;;;;;;;;;;10.24;74.96;99949.13;108638;1267;85505;-60
2023/10/10 08:39:39;;;;;;;;;;;;;;;10.27;75.03;99949.36;110533;1267;23389;-60
2023/10/10 08:42:10;;;;;;;;;;;;;;;10.27;74.91;99945.02;110496;1267;83851;-61
2023/10/10 08:45:02;;;;;;;;;;;;;;;10.28;74.74;99950.37;107929;1267;23166;-59
2023/10/10 08:47:33;;;;;;;;;;;;;;;10.39;74.94;99951.84;110422;1266;85697;-62
2023/10/10 08:50:00;;;;;;;;;;;;;;;10.44;74.88;99951.78;110439;1268;22536;-62
2023/10/10 08:52:52;;;;;;;;;;;;;;;10.46;74.62;99952.58;110579;1267;22527;-62
2023/10/10 08:55:26;;;;;;;;;;;;;;;10.51;74.77;99955.67;110553;1267;23051;-62
2023/10/10 09:01:00;;;;;;;;;;;;;;;10.66;74.50;99954.48;109069;1269;85043;-61
2023/10/10 09:03:28;;;;;;;;;;;;;;;10.82;74.81;99961.08;110248;1267;22585;-61
2023/10/10 09:05:56;;;;;;;;;;;;;;;10.99;74.58;99959.64;110542;1267;84997;-62
2023/10/10 09:08:49;;;;;;;;;;;;;;;11.11;74.54;99962.23;109670;1267;22626;-61
2023/10/10 09:11:22;;;;;;;;;;;;;;;11.22;74.07;99961.54;109236;1273;84570;-61
2023/10/10 09:13:51;;;;;;;;;;;;;;;11.27;73.96;99966.22;109434;1267;24382;-61
2023/10/10 09:16:40;;;;;;;;;;;;;;;11.27;73.81;99967.40;108884;1269;24247;-61
2023/10/10 09:19:08;;;;;;;;;;;;;;;11.35;73.94;99972.27;110401;1267;85363;-62
2023/10/10 09:21:44;;;;;;;;;;;;;;;11.37;73.60;99974.63;110513;1270;22432;-61
2023/10/10 09:24:26;;;;;;;;;;;;;;;11.28;73.39;99974.31;110222;1267;85412;-65
2023/10/10 09:27:10;;;;;;;;;;;;;;;11.27;73.50;99975.95;109753;1267;22532;-64
2023/10/10 09:29:56;;;;;;;;;;;;;;;11.32;73.46;99967.19;108920;1270;85722;-63
2023/10/10 09:32:36;;;;;;;;;;;;;;;11.38;73.36;99968.98;107039;1270;22523;-62
2023/10/10 09:35:08;;;;;;;;;;;;;;;11.49;73.39;99967.44;107098;1270;85442;-66
2023/10/10 09:37:41;;;;;;;;;;;;;;;11.57;73.25;99968.45;106623;1273;22667;-68
2023/10/10 09:40:15;;;;;;;;;;;;;;;11.66;73.16;99970.48;108268;1271;26137;-61
2023/10/10 09:54:36;;;;;;;;;;;;;;;11.63;72.14;99964.34;106639;1270;85251;-61
2023/10/10 09:57:08;;;;;;;;;;;;;;;11.65;72.06;99962.14;106619;1270;24220;-62
2023/10/10 09:59:53;;;;;;;;;;;;;;;11.70;71.97;99964.17;107502;1271;85625;-61
2023/10/10 10:02:40;;;;;;;;;;;;;;;11.71;71.72;99963.95;106442;1270;23867;-58
2023/10/10 10:09:17;;;;;;;;;;;;;;;11.75;71.26;99961.65;107224;1270;25805;-61
2023/10/10 10:11:51;;;;;;;;;;;;;;;11.75;70.84;99959.73;107631;1271;84374;-61
2023/10/10 10:14:37;;;;;;;;;;;;;;;11.82;71.14;99959.75;106922;1270;27482;-61
2023/10/10 10:17:23;;;;;;;;;;;;;;;11.90;70.78;99955.43;106899;1264;85853;-59
2023/10/10 10:19:50;;;;;;;;;;;;;;;11.89;70.40;99950.95;107185;1267;25271;-62
2023/10/10 10:25:45;;;;;;;;;;;;;;;11.87;70.13;99959.38;107290;1267;22508;-61
2023/10/10 10:28:19;;;;;;;;;;;;;;;11.77;70.05;99960.87;107062;1267;23891;-59
2023/10/10 10:30:53;;;;;;;;;;;;;;;11.76;70.00;99962.30;106865;1267;85271;-60
2023/10/10 10:33:22;;;;;;;;;;;;;;;11.78;69.97;99961.52;107421;1261;25545;-64
2023/10/10 10:35:56;;;;;;;;;;;;;;;11.82;69.87;99958.88;108810;1267;85737;-64
2023/10/10 10:38:24;;;;;;;;;;;;;;;11.85;69.73;99957.88;106895;1264;26271;-62
2023/10/10 10:41:04;;;;;;;;;;;;;;;11.89;69.68;99954.40;108042;1267;24349;-58
2023/10/10 10:43:38;;;;;;;;;;;;;;;11.92;69.44;99953.58;110534;1267;23875;-63
2023/10/10 10:46:12;;;;;;;;;;;;;;;11.90;69.23;99950.90;110541;1267;23147;-60
2023/10/10 10:48:39;;;;;;;;;;;;;;;11.89;69.30;99953.89;107528;1267;85325;-58
2023/10/10 10:51:41;;;;;;;;;;;;;;;11.91;69.06;99953.98;109091;1267;22529;-66
2023/10/10 10:54:10;;;;;;;;;;;;;;;11.90;69.02;99950.33;107097;1267;85159;-57
2023/10/10 10:57:04;;;;;;;;;;;;;;;11.98;69.03;99946.14;108092;1271;25393;-61
2023/10/10 10:59:55;;;;;;;;;;;;;;;12.13;69.18;99939.23;110423;1267;85477;-62
2023/10/10 11:02:29;;;;;;;;;;;;;;;12.30;69.10;99934.55;108608;1270;22556;-60
2023/10/10 11:04:58;;;;;;;;;;;;;;;12.42;68.94;99932.88;107012;1267;22482;-61
2023/10/10 11:07:41;;;;;;;;;;;;;;;12.53;68.58;99934.39;107275;1268;22617;-58
2023/10/10 11:10:08;;;;;;;;;;;;;;;12.64;68.43;99937.65;108843;1269;23787;-64
2023/10/10 11:12:40;;;;;;;;;;;;;;;12.73;68.26;99935.80;106785;1269;84115;-62
2023/10/10 11:15:10;;;;;;;;;;;;;;;12.85;68.22;99939.55;107403;1268;22525;-62
2023/10/10 11:17:40;;;;;;;;;;;;;;;12.95;68.13;99941.80;106856;1268;85344;-60
2023/10/10 11:23:10;;;;;;;;;;;;;;;13.21;68.03;99943.87;110506;1267;22452;-58
2023/10/10 11:28:49;;;;;;;;;;;;;;;13.27;67.39;99930.69;107020;1268;22553;-59
2023/10/10 11:31:23;;;;;;;;;;;;;;;13.31;67.30;99924.17;107237;1269;85766;-58
2023/10/10 11:34:10;;;;;;;;;;;;;;;13.48;67.25;99915.50;106949;1267;22722;-60
2023/10/10 11:36:40;;;;;;;;;;;;;;;13.69;67.03;99922.88;106785;1267;86162;-60
2023/10/10 11:39:31;;;;;;;;;;;;;;;13.92;66.81;99921.94;106928;1261;22767;-60
2023/10/10 11:42:11;;;;;;;;;;;;;;;14.10;66.51;99926.63;108199;1268;83971;-58
2023/10/10 11:44:44;;;;;;;;;;;;;;;14.25;66.22;99927.69;108260;1268;23136;-55
2023/10/10 11:47:42;;;;;;;;;;;;;;;14.37;65.84;99922.08;107232;1268;84742;-58
2023/10/10 11:50:15;;;;;;;;;;;;;;;14.40;65.57;99914.04;110331;1268;22511;-57
2023/10/10 11:52:52;;;;;;;;;;;;;;;14.47;65.43;99912.55;108860;1268;22730;-60
2023/10/10 11:55:40;;;;;;;;;;;;;;;14.57;65.18;99914.79;108092;1268;85157;-60
2023/10/10 11:58:08;;;;;;;;;;;;;;;14.74;64.84;99917.09;106988;1270;22523;-60
2023/10/10 12:09:51;;;;;;;;;;;;;;;14.67;63.72;99905.11;107064;1276;22531;-59
2023/10/10 12:12:19;;;;;;;;;;;;;;;14.53;63.17;99905.18;106848;1277;85250;-59
2023/10/10 12:14:50;;;;;;;;;;;;;;;14.36;63.05;99910.40;107520;1267;22602;-60
2023/10/10 12:17:20;;;;;;;;;;;;;;;14.30;63.13;99917.10;106275;1273;85410;-61
2023/10/10 12:19:47;;;;;;;;;;;;;;;14.30;63.07;99915.48;106625;1274;25505;-60
2023/10/10 12:22:17;;;;;;;;;;;;;;;14.23;62.69;99913.86;106321;1275;22514;-60
2023/10/10 12:24:44;;;;;;;;;;;;;;;14.11;62.56;99914.20;106392;1273;84134;-61
2023/10/10 12:27:12;;;;;;;;;;;;;;;14.04;62.55;99915.80;106346;1273;26508;-64
2023/10/10 12:29:41;;;;;;;;;;;;;;;14.04;62.46;99923.15;110008;1272;23544;-62
2023/10/10 12:32:22;;;;;;;;;;;;;;;14.05;62.20;99927.45;109833;1274;23233;-60
2023/10/10 12:34:50;;;;;;;;;;;;;;;13.97;61.91;99922.16;110012;1275;23255;-59
2023/10/10 12:37:17;;;;;;;;;;;;;;;13.96;62.06;99911.87;109889;1273;85934;-60
2023/10/10 12:39:45;;;;;;;;;;;;;;;14.05;62.14;99909.95;107474;1274;22522;-60
2023/10/10 12:42:12;;;;;;;;;;;;;;;14.11;61.94;99904.55;109968;1273;85429;-60
2023/10/10 12:44:39;;;;;;;;;;;;;;;14.07;61.55;99899.88;109749;1267;22700;-59
2023/10/10 12:47:07;;;;;;;;;;;;;;;13.95;61.25;99897.77;106986;1267;22665;-58
2023/10/10 12:49:44;;;;;;;;;;;;;;;13.88;61.41;99896.27;109104;1267;84682;-61
2023/10/10 12:52:12;;;;;;;;;;;;;;;13.92;61.37;99894.11;109247;1267;24294;-60
2023/10/10 12:54:41;;;;;;;;;;;;;;;13.92;61.14;99897.79;107016;1267;83971;-61
2023/10/10 12:57:14;;;;;;;;;;;;;;;13.92;61.00;99898.67;110333;1267;22533;-60
2023/10/10 12:59:48;;;;;;;;;;;;;;;13.86;60.81;99899.03;106926;1269;85323;-61
2023/10/10 13:02:15;;;;;;;;;;;;;;;13.77;60.97;99898.66;110441;1270;23241;-61
2023/10/10 13:04:48;;;;;;;;;;;;;;;13.86;61.24;99895.34;109924;1268;25560;-61
2023/10/10 13:07:18;;;;;;;;;;;;;;;13.90;60.95;99882.16;107143;1268;85251;-61
2023/10/10 13:09:46;;;;;;;;;;;;;;;13.83;60.76;99878.73;107075;1267;25288;-62
2023/10/10 13:12:27;;;;;;;;;;;;;;;13.66;60.51;99871.14;107050;1269;84616;-61
2023/10/10 13:15:16;;;;;;;;;;;;;;;13.51;60.62;99870.23;107307;1268;24212;-61
2023/10/10 13:18:11;;;;;;;;;;;;;;;13.41;60.48;99859.45;108642;1267;85355;-61
2023/10/10 13:20:39;;;;;;;;;;;;;;;13.22;60.43;99855.56;109045;1267;22991;-61
2023/10/10 13:23:06;;;;;;;;;;;;;;;13.15;60.47;99847.72;110527;1267;22422;-62
2023/10/10 13:25:37;;;;;;;;;;;;;;;13.09;60.36;99841.11;107961;1261;84446;-61
2023/10/10 13:28:17;;;;;;;;;;;;;;;13.05;60.21;99838.52;108330;1270;23000;-62
2023/10/10 13:30:47;;;;;;;;;;;;;;;12.94;60.11;99842.09;108108;1268;85196;-62
2023/10/10 13:33:15;;;;;;;;;;;;;;;12.84;60.13;99842.52;110586;1267;22499;-62
2023/10/10 13:35:48;;;;;;;;;;;;;;;12.83;60.28;99837.33;107286;1267;85883;-61
2023/10/10 13:38:18;;;;;;;;;;;;;;;12.83;60.11;99834.84;108042;1268;24748;-62
2023/10/10 13:40:48;;;;;;;;;;;;;;;12.80;60.19;99829.41;107478;1268;25220;-62
2023/10/10 13:43:19;;;;;;;;;;;;;;;12.76;60.18;99829.44;110393;1267;84979;-61
2023/10/10 13:45:52;;;;;;;;;;;;;;;12.78;60.23;99827.25;109784;1267;24052;-61
2023/10/10 13:48:24;;;;;;;;;;;;;;;12.86;60.23;99833.84;108733;1268;85903;-56
2023/10/10 13:50:51;;;;;;;;;;;;;;;12.86;60.19;99828.03;106823;1268;23728;-61
2023/10/10 13:53:20;;;;;;;;;;;;;;;12.86;60.09;99821.06;106715;1268;84376;-59
2023/10/10 13:55:47;;;;;;;;;;;;;;;12.86;60.21;99806.21;108976;1268;25372;-61
2023/10/10 13:58:16;;;;;;;;;;;;;;;12.88;60.17;99798.75;107329;1268;22762;-61
2023/10/10 14:00:55;;;;;;;;;;;;;;;12.85;60.10;99804.89;107047;1267;85212;-62
2023/10/10 14:03:35;;;;;;;;;;;;;;;12.75;60.02;99802.23;107122;1267;25393;-62
2023/10/10 14:06:12;;;;;;;;;;;;;;;12.68;60.08;99802.98;107664;1260;86829;-62
2023/10/10 14:08:47;;;;;;;;;;;;;;;12.61;60.06;99805.48;106946;1267;22646;-62
2023/10/10 14:11:21;;;;;;;;;;;;;;;12.52;60.08;99802.98;108750;1266;85911;-60
2023/10/10 14:13:49;;;;;;;;;;;;;;;12.43;59.94;99801.58;110456;1265;22480;-62
2023/10/10 14:16:17;;;;;;;;;;;;;;;12.22;59.78;99800.55;110224;1267;22439;-61
2023/10/10 14:18:49;;;;;;;;;;;;;;;11.96;59.65;99801.77;110447;1269;85683;-61
2023/10/10 14:21:27;;;;;;;;;;;;;;;11.72;59.90;99796.30;109364;1269;22511;-63
2023/10/10 14:24:05;;;;;;;;;;;;;;;11.55;60.04;99786.39;107367;1263;86061;-62
2023/10/10 14:26:36;;;;;;;;;;;;;;;11.41;60.14;99793.15;107002;1268;23260;-60
2023/10/10 14:29:05;;;;;;;;;;;;;;;11.27;60.05;99792.48;107099;1267;26590;-61
2023/10/10 14:31:42;;;;;;;;;;;;;;;11.10;60.12;99801.14;107115;1267;85571;-62
2023/10/10 14:34:20;;;;;;;;;;;;;;;10.96;60.18;99805.98;107965;1269;23047;-62
2023/10/10 14:36:51;;;;;;;;;;;;;;;10.83;60.22;99807.48;109262;1268;85178;-59
2023/10/10 14:39:36;;;;;;;;;;;;;;;10.70;60.25;99804.41;107479;1269;23372;-60
2023/10/10 14:42:10;;;;;;;;;;;;;;;10.59;60.62;99798.46;107323;1269;85640;-59
2023/10/10 14:44:40;;;;;;;;;;;;;;;10.53;60.69;99790.94;107445;1267;22583;-61
2023/10/10 14:47:09;;;;;;;;;;;;;;;10.46;60.70;99794.02;108662;1265;22966;-59
2023/10/10 14:49:38;;;;;;;;;;;;;;;10.38;60.97;99804.13;107854;1267;25486;-60
2023/10/10 14:52:06;;;;;;;;;;;;;;;10.31;61.14;99799.95;107754;1268;22532;-61
2023/10/10 14:54:37;;;;;;;;;;;;;;;10.23;61.23;99796.27;107357;1268;85674;-64
2023/10/10 14:57:06;;;;;;;;;;;;;;;10.14;61.03;99789.71;109329;1268;25295;-58
2023/10/10 14:59:35;;;;;;;;;;;;;;;10.02;61.14;99790.38;107076;1268;87163;-60
2023/10/10 15:02:06;;;;;;;;;;;;;;;9.93;61.36;99792.20;107128;1270;25228;-58
2023/10/10 15:04:36;;;;;;;;;;;;;;;9.83;61.54;99791.55;107747;1268;22511;-59
2023/10/10 15:07:04;;;;;;;;;;;;;;;9.75;61.52;99778.71;108619;1269;85468;-60
2023/10/10 15:09:35;;;;;;;;;;;;;;;9.67;61.48;99773.98;107607;1274;25072;-61
2023/10/10 15:12:03;;;;;;;;;;;;;;;9.58;61.75;99782.34;107127;1268;85049;-55
2023/10/10 15:14:32;;;;;;;;;;;;;;;9.52;61.95;99782.80;107546;1269;24277;-68
2023/10/10 15:17:04;;;;;;;;;;;;;;;9.46;61.85;99776.10;107237;1269;22518;-62
2023/10/10 15:19:33;;;;;;;;;;;;;;;9.38;61.86;99770.35;108187;1269;85331;-62
2023/10/10 15:22:01;;;;;;;;;;;;;;;9.31;61.94;99770.83;107328;1268;22575;-58
2023/10/10 15:24:49;;;;;;;;;;;;;;;;;;;;;
2023/10/10 15:27:26;;;;;;;;;;;;;;;9.14;62.36;99782.09;108540;1266;22599;-59
2023/10/10 15:30:08;;;;;;;;;;;;;;;9.04;62.52;99787.88;107349;1268;85062;-58
2023/10/10 15:32:54;;;;;;;;;;;;;;;8.95;62.60;99781.81;107226;1268;25394;-59
2023/10/10 15:35:23;;;;;;;;;;;;;;;8.85;62.70;99787.77;106914;1267;84212;-57
2023/10/10 15:37:52;;;;;;;;;;;;;;;8.76;62.87;99779.62;108180;1268;22549;-61
2023/10/10 15:40:22;;;;;;;;;;;;;;;8.68;62.80;99776.62;107065;1268;23874;-62
2023/10/10 15:42:51;;;;;;;;;;;;;;;8.60;62.97;99788.55;107633;1261;85551;-61
2023/10/10 15:45:22;;;;;;;;;;;;;;;8.53;63.12;99791.43;107920;1271;25564;-61
2023/10/10 15:47:52;;;;;;;;;;;;;;;8.47;63.29;99783.66;106971;1267;84571;-58
2023/10/10 15:50:22;;;;;;;;;;;;;;;8.40;63.22;99775.23;106869;1268;25346;-61
2023/10/10 15:52:50;;;;;;;;;;;;;;;8.33;63.47;99775.66;107461;1267;22706;-62
2023/10/10 15:55:23;;;;;;;;;;;;;;;8.27;63.42;99778.98;107212;1268;85348;-59
2023/10/10 15:57:52;;;;;;;;;;;;;;;8.21;63.52;99779.23;107046;1264;22511;-60
2023/10/10 16:00:32;;;;;;;;;;;;;;;8.15;63.77;99783.08;107145;1268;83960;-70
2023/10/10 16:03:06;;;;;;;;;;;;;;;8.08;63.71;99785.25;106802;1268;22512;-60
2023/10/10 16:05:43;;;;;;;;;;;;;;;8.01;63.78;99787.04;107160;1268;84508;-61
2023/10/10 16:08:10;;;;;;;;;;;;;;;7.96;63.94;99783.63;107279;1268;23704;-62
2023/10/10 16:10:37;;;;;;;;;;;;;;;7.91;64.10;99788.12;107196;1267;22504;-56